createdAt,value
2022-10-11T00:00:10.518Z,8.90
2022-10-11T00:01:10.520Z,9.60
2022-10-11T00:02:10.465Z,9.30
2022-10-11T00:03:10.461Z,7.70
2022-10-11T00:04:10.464Z,9.00
2022-10-11T00:05:10.467Z,9.90
2022-10-11T00:06:10.476Z,11.60
2022-10-11T00:07:10.438Z,9.30
2022-10-11T00:08:10.441Z,11.40
2022-10-11T00:09:10.418Z,11.40
2022-10-11T00:10:10.414Z,11.00
2022-10-11T00:11:10.406Z,11.00
2022-10-11T00:12:10.442Z,9.90
2022-10-11T00:13:10.390Z,10.50
2022-10-11T00:14:10.383Z,10.20
2022-10-11T00:15:10.547Z,10.60
2022-10-11T00:16:10.401Z,12.00
2022-10-11T00:17:10.363Z,12.00
2022-10-11T00:18:10.374Z,11.30
2022-10-11T00:19:10.357Z,12.80
2022-10-11T00:20:10.360Z,12.70
2022-10-11T00:21:10.336Z,11.30
2022-10-11T00:22:10.341Z,10.90
2022-10-11T00:23:10.873Z,10.50
2022-10-11T00:24:10.306Z,11.30
2022-10-11T00:25:10.308Z,8.90
2022-10-11T00:26:10.339Z,12.20
2022-10-11T00:27:10.278Z,11.20
2022-10-11T00:28:10.306Z,11.80
2022-10-11T00:29:10.284Z,12.60
2022-10-11T00:30:10.261Z,12.80
2022-10-11T00:31:10.271Z,13.90
2022-10-11T00:32:10.245Z,13.30
2022-10-11T00:33:10.232Z,17.40
2022-10-11T00:34:10.251Z,12.10
2022-10-11T00:35:10.220Z,11.50
2022-10-11T00:36:10.214Z,14.60
2022-10-11T00:37:10.203Z,12.50
2022-10-11T00:38:10.189Z,12.60
2022-10-11T00:39:10.201Z,15.30
2022-10-11T00:40:10.188Z,11.80
2022-10-11T00:41:10.161Z,11.80
2022-10-11T00:42:10.155Z,14.10
2022-10-11T00:43:10.147Z,13.90
2022-10-11T00:44:10.144Z,14.70
2022-10-11T00:45:10.137Z,10.70
2022-10-11T00:46:10.165Z,14.30
2022-10-11T00:47:10.147Z,16.20
2022-10-11T00:48:10.129Z,14.70
2022-10-11T00:49:10.137Z,12.80
2022-10-11T00:50:10.101Z,14.90
2022-10-11T00:51:10.091Z,14.20
2022-10-11T00:52:10.103Z,15.00
2022-10-11T00:53:10.072Z,13.10
2022-10-11T00:54:10.058Z,12.40
2022-10-11T00:55:10.062Z,13.90
2022-10-11T00:56:10.053Z,14.00
2022-10-11T00:57:10.061Z,16.70
2022-10-11T00:58:10.032Z,11.70
2022-10-11T00:59:10.071Z,12.90
2022-10-11T01:00:10.019Z,13.20
2022-10-11T01:01:10.040Z,15.70
2022-10-11T01:02:10.007Z,13.60
2022-10-11T01:03:10.004Z,16.80
2022-10-11T01:04:09.986Z,17.80
2022-10-11T01:05:28.491Z,18.00
2022-10-11T01:06:10.964Z,17.40
2022-10-11T01:07:09.956Z,12.40
2022-10-11T01:08:09.942Z,17.10
2022-10-11T01:09:09.948Z,15.40
2022-10-11T01:10:09.931Z,17.00
2022-10-11T01:11:09.948Z,16.70
2022-10-11T01:12:09.921Z,16.50
2022-10-11T01:13:09.912Z,17.70
2022-10-11T01:14:09.904Z,16.80
2022-10-11T01:15:09.904Z,16.20
2022-10-11T01:16:09.912Z,16.10
2022-10-11T01:17:09.907Z,16.50
2022-10-11T01:18:09.870Z,15.40
2022-10-11T01:19:09.881Z,14.40
2022-10-11T01:20:09.853Z,18.00
2022-10-11T01:22:35.981Z,18.00
2022-10-11T01:23:36.008Z,19.40
2022-10-11T01:24:35.973Z,15.20
2022-10-11T01:25:35.970Z,19.70
2022-10-11T01:26:35.969Z,17.60
2022-10-11T01:27:35.960Z,16.20
2022-10-11T01:28:35.978Z,15.10
2022-10-11T01:29:36.398Z,17.00
2022-10-11T01:30:35.933Z,14.70
2022-10-11T01:31:35.924Z,17.70
2022-10-11T01:32:35.913Z,17.70
2022-10-11T01:33:35.896Z,19.30
2022-10-11T01:34:35.940Z,16.80
2022-10-11T01:35:35.903Z,16.00
2022-10-11T01:36:35.881Z,15.60
2022-10-11T01:37:35.870Z,16.80
2022-10-11T01:38:35.853Z,16.00
2022-10-11T01:39:35.850Z,16.70
2022-10-11T01:40:35.865Z,17.50
2022-10-11T01:41:35.844Z,16.80
2022-10-11T01:42:35.830Z,16.40
2022-10-11T01:43:35.837Z,15.90
2022-10-11T01:44:35.816Z,14.00
2022-10-11T01:45:35.803Z,13.80
2022-10-11T01:46:35.922Z,18.60
2022-10-11T01:47:35.790Z,14.30
2022-10-11T01:48:35.773Z,18.20
2022-10-11T01:49:35.785Z,18.60
2022-10-11T01:50:35.783Z,17.90
2022-10-11T01:51:35.777Z,18.70
2022-10-11T01:52:35.787Z,17.60
2022-10-11T01:53:35.745Z,17.50
2022-10-11T01:55:04.050Z,18.80
2022-10-11T01:55:36.730Z,16.90
2022-10-11T01:56:35.720Z,17.10
2022-10-11T01:57:35.713Z,16.40
2022-10-11T01:58:35.733Z,18.30
2022-10-11T01:59:35.715Z,15.70
2022-10-11T02:00:35.680Z,19.60
2022-10-11T02:01:35.764Z,16.80
2022-10-11T02:02:35.669Z,14.40
2022-10-11T02:03:35.675Z,14.50
2022-10-11T02:04:35.656Z,18.70
2022-10-11T02:05:35.667Z,15.80
2022-10-11T02:06:35.651Z,17.00
2022-10-11T02:07:35.636Z,14.50
2022-10-11T02:08:35.626Z,15.00
2022-10-11T02:09:35.618Z,15.00
2022-10-11T02:10:35.675Z,16.80
2022-10-11T02:11:35.630Z,18.90
2022-10-11T02:12:35.597Z,16.70
2022-10-11T02:13:35.572Z,16.70
2022-10-11T02:14:35.569Z,17.90
2022-10-11T02:15:35.571Z,16.00
2022-10-11T02:16:35.564Z,15.50
2022-10-11T02:17:35.569Z,17.90
2022-10-11T02:18:35.552Z,17.10
2022-10-11T02:19:35.535Z,18.20
2022-10-11T02:20:35.532Z,19.80
2022-10-11T02:21:35.519Z,17.20
2022-10-11T02:22:35.546Z,17.40
2022-10-11T02:23:35.509Z,18.00
2022-10-11T02:24:35.499Z,16.10
2022-10-11T02:25:35.484Z,19.00
2022-10-11T02:26:35.481Z,15.40
2022-10-11T02:27:35.496Z,17.30
2022-10-11T02:28:35.496Z,17.30
2022-10-11T02:29:35.473Z,15.60
2022-10-11T02:30:35.451Z,16.10
2022-10-11T02:31:35.437Z,17.30
2022-10-11T02:32:35.421Z,17.80
2022-10-11T02:33:35.423Z,17.90
2022-10-11T02:34:35.426Z,17.80
2022-10-11T02:35:35.418Z,15.20
2022-10-11T02:36:35.390Z,17.20
2022-10-11T02:37:35.449Z,15.30
2022-10-11T02:38:35.373Z,16.10
2022-10-11T02:39:35.370Z,19.40
2022-10-11T02:40:35.368Z,19.20
2022-10-11T02:41:35.355Z,17.00
2022-10-11T02:42:35.357Z,16.10
2022-10-11T02:43:35.492Z,18.50
2022-10-11T02:44:35.340Z,15.20
2022-10-11T02:45:35.317Z,16.80
2022-10-11T02:46:35.322Z,17.80
2022-10-11T02:47:35.330Z,18.60
2022-10-11T02:48:35.295Z,16.80
2022-10-11T02:49:35.306Z,15.90
2022-10-11T02:50:35.291Z,18.50
2022-10-11T02:51:35.278Z,19.30
2022-10-11T02:52:35.295Z,19.80
2022-10-11T02:53:35.275Z,17.20
2022-10-11T02:54:35.249Z,19.00
2022-10-11T02:55:35.241Z,18.40
2022-10-11T02:56:35.232Z,17.70
2022-10-11T02:57:35.231Z,18.30
2022-10-11T02:58:35.243Z,18.40
2022-10-11T02:59:35.213Z,17.80
2022-10-11T03:00:35.196Z,14.20
2022-10-11T03:01:35.224Z,16.20
2022-10-11T03:02:35.174Z,20.50
2022-10-11T03:03:35.200Z,17.50
2022-10-11T03:04:35.176Z,19.60
2022-10-11T03:05:35.152Z,19.10
2022-10-11T03:06:35.141Z,15.60
2022-10-11T03:07:35.133Z,16.90
2022-10-11T03:08:35.129Z,15.30
2022-10-11T03:09:35.145Z,17.80
2022-10-11T03:10:35.353Z,18.90
2022-10-11T03:11:35.101Z,15.60
2022-10-11T03:12:35.092Z,16.80
2022-10-11T03:13:35.083Z,18.40
2022-10-11T03:14:35.074Z,18.60
2022-10-11T03:15:35.080Z,15.90
2022-10-11T03:16:35.087Z,17.60
2022-10-11T03:17:36.871Z,16.50
2022-10-11T03:18:35.074Z,18.60
2022-10-11T03:19:35.077Z,18.90
2022-10-11T03:20:35.027Z,17.10
2022-10-11T03:21:35.025Z,16.20
2022-10-11T03:22:35.028Z,20.00
2022-10-11T03:23:35.003Z,19.70
2022-10-11T03:24:34.995Z,21.80
2022-10-11T03:25:34.995Z,18.70
2022-10-11T03:26:34.996Z,18.20
2022-10-11T03:27:34.975Z,19.90
2022-10-11T03:28:35.010Z,15.80
2022-10-11T03:29:34.958Z,20.60
2022-10-11T03:30:34.960Z,20.30
2022-10-11T03:31:34.938Z,19.50
2022-10-11T03:32:34.924Z,21.30
2022-10-11T03:33:34.927Z,19.30
2022-10-11T03:34:34.960Z,17.00
2022-10-11T03:35:34.894Z,18.90
2022-10-11T03:36:34.894Z,19.00
2022-10-11T03:37:34.931Z,19.00
2022-10-11T03:38:34.867Z,21.30
2022-10-11T03:39:34.863Z,20.90
2022-10-11T03:40:34.855Z,21.60
2022-10-11T03:41:34.855Z,19.70
2022-10-11T03:42:34.851Z,19.30
2022-10-11T03:43:34.856Z,18.00
2022-10-11T03:44:34.828Z,20.00
2022-10-11T03:45:34.811Z,23.50
2022-10-11T03:46:34.808Z,19.60
2022-10-11T03:47:34.796Z,21.30
2022-10-11T03:48:34.871Z,18.70
2022-10-11T03:49:36.141Z,16.30
2022-10-11T03:50:34.770Z,19.60
2022-10-11T03:51:34.759Z,20.10
2022-10-11T03:52:34.777Z,22.60
2022-10-11T03:53:34.791Z,21.10
2022-10-11T03:54:34.742Z,17.60
2022-10-11T03:55:34.743Z,18.20
2022-10-11T03:56:34.752Z,21.50
2022-10-11T03:57:34.753Z,19.80
2022-10-11T03:58:34.708Z,22.30
2022-10-11T03:59:34.686Z,19.70
2022-10-11T04:00:34.702Z,19.20
2022-10-11T04:01:34.760Z,23.00
2022-10-11T04:02:38.959Z,19.60
2022-10-11T04:03:34.654Z,23.00
2022-10-11T04:04:34.659Z,21.20
2022-10-11T04:05:34.638Z,23.90
2022-10-11T04:06:34.660Z,22.30
2022-10-11T04:07:34.627Z,22.30
2022-10-11T04:08:34.736Z,19.00
2022-10-11T04:09:34.607Z,19.50
2022-10-11T04:10:34.704Z,22.30
2022-10-11T04:11:34.627Z,19.80
2022-10-11T04:12:34.588Z,19.00
2022-10-11T04:13:34.571Z,19.80
2022-10-11T04:14:34.579Z,20.10
2022-10-11T04:15:34.553Z,22.90
2022-10-11T04:16:34.545Z,19.80
2022-10-11T04:17:34.545Z,18.90
2022-10-11T04:18:34.540Z,18.00
2022-10-11T04:19:34.540Z,23.90
2022-10-11T04:20:34.577Z,23.10
2022-10-11T04:21:34.515Z,21.80
2022-10-11T04:22:34.508Z,24.80
2022-10-11T04:23:34.503Z,21.90
2022-10-11T04:24:34.486Z,19.00
2022-10-11T04:25:34.483Z,21.60
2022-10-11T04:26:34.499Z,25.30
2022-10-11T04:27:34.492Z,20.70
2022-10-11T04:28:34.513Z,22.40
2022-10-11T04:29:34.440Z,21.30
2022-10-11T04:30:34.445Z,21.20
2022-10-11T04:31:34.428Z,17.20
2022-10-11T04:32:34.448Z,19.10
2022-10-11T04:33:34.434Z,17.50
2022-10-11T04:34:34.414Z,16.70
2022-10-11T04:35:34.410Z,25.30
2022-10-11T04:36:34.402Z,33.10
2022-10-11T04:37:34.393Z,26.70
2022-10-11T04:38:34.400Z,26.40
2022-10-11T04:39:34.404Z,22.10
2022-10-11T04:40:34.376Z,24.20
2022-10-11T04:41:34.363Z,21.40
2022-10-11T04:42:34.356Z,22.30
2022-10-11T04:43:34.340Z,20.80
2022-10-11T04:44:34.330Z,21.10
2022-10-11T04:45:34.342Z,17.10
2022-10-11T04:46:34.344Z,15.70
2022-10-11T04:47:34.351Z,19.20
2022-10-11T04:48:34.313Z,20.10
2022-10-11T04:49:34.305Z,17.20
2022-10-11T04:50:34.315Z,27.90
2022-10-11T04:51:34.314Z,24.40
2022-10-11T04:52:34.289Z,27.90
2022-10-11T04:53:34.275Z,20.90
2022-10-11T04:54:34.270Z,21.90
2022-10-11T04:55:34.252Z,22.00
2022-10-11T04:56:34.272Z,21.40
2022-10-11T04:57:34.283Z,16.50
2022-10-11T04:58:34.263Z,21.70
2022-10-11T04:59:34.222Z,22.20
2022-10-11T05:00:34.222Z,21.30
2022-10-11T05:01:34.269Z,24.20
2022-10-11T05:02:34.469Z,18.20
2022-10-11T05:03:34.212Z,19.60
2022-10-11T05:04:34.214Z,21.40
2022-10-11T05:05:34.173Z,21.40
2022-10-11T05:06:34.223Z,25.30
2022-10-11T05:07:34.155Z,57.50
2022-10-11T05:08:34.146Z,46.40
2022-10-11T05:09:34.149Z,47.80
2022-10-11T05:10:34.164Z,37.50
2022-10-11T05:11:34.130Z,31.30
2022-10-11T05:12:34.121Z,25.40
2022-10-11T05:13:34.133Z,24.30
2022-10-11T05:14:34.107Z,22.30
2022-10-11T05:15:34.095Z,24.00
2022-10-11T05:16:34.112Z,26.70
2022-10-11T05:17:34.103Z,21.00
2022-10-11T05:18:34.078Z,22.20
2022-10-11T05:19:34.070Z,25.40
2022-10-11T05:20:34.075Z,25.30
2022-10-11T05:21:34.051Z,26.00
2022-10-11T05:22:34.049Z,27.20
2022-10-11T05:23:34.053Z,26.30
2022-10-11T05:24:34.026Z,22.20
2022-10-11T05:25:34.006Z,21.30
2022-10-11T05:26:34.038Z,22.20
2022-10-11T05:27:33.998Z,20.00
2022-10-11T05:28:34.052Z,17.70
2022-10-11T05:29:34.019Z,21.30
2022-10-11T05:30:33.982Z,22.50
2022-10-11T05:31:33.970Z,20.30
2022-10-11T05:32:33.968Z,23.30
2022-10-11T05:33:33.951Z,38.20
2022-10-11T05:34:33.954Z,30.10
2022-10-11T05:35:33.977Z,26.80
2022-10-11T05:36:33.945Z,29.30
2022-10-11T05:37:33.929Z,24.70
2022-10-11T05:38:33.921Z,25.00
2022-10-11T05:39:33.935Z,23.60
2022-10-11T05:40:33.899Z,24.80
2022-10-11T05:41:33.913Z,20.10
2022-10-11T05:42:33.908Z,17.80
2022-10-11T05:43:33.876Z,20.90
2022-10-11T05:44:33.874Z,22.60
2022-10-11T05:45:33.868Z,18.60
2022-10-11T05:46:33.845Z,19.30
2022-10-11T05:47:33.861Z,20.40
2022-10-11T05:48:33.859Z,23.10
2022-10-11T05:49:33.834Z,22.80
2022-10-11T05:50:33.820Z,18.80
2022-10-11T05:51:33.814Z,20.60
2022-10-11T05:52:33.826Z,20.90
2022-10-11T05:53:33.801Z,22.20
2022-10-11T05:54:33.788Z,20.60
2022-10-11T05:55:33.782Z,22.10
2022-10-11T05:56:33.774Z,19.60
2022-10-11T05:57:33.921Z,25.80
2022-10-11T05:58:33.792Z,23.20
2022-10-11T05:59:33.744Z,23.50
2022-10-11T06:00:33.742Z,25.70
2022-10-11T06:01:33.807Z,20.30
2022-10-11T06:02:33.727Z,23.30
2022-10-11T06:03:33.729Z,20.10
2022-10-11T06:04:33.742Z,22.60
2022-10-11T06:05:33.700Z,16.70
2022-10-11T06:06:33.686Z,19.50
2022-10-11T06:07:33.687Z,26.10
2022-10-11T06:08:33.698Z,27.30
2022-10-11T06:09:33.668Z,40.50
2022-10-11T06:10:33.679Z,37.60
2022-10-11T06:11:33.661Z,44.30
2022-10-11T06:12:33.650Z,43.60
2022-10-11T06:13:33.643Z,40.40
2022-10-11T06:14:33.661Z,37.30
2022-10-11T06:15:33.733Z,35.50
2022-10-11T06:16:33.637Z,27.80
2022-10-11T06:17:33.630Z,24.40
2022-10-11T06:18:33.607Z,23.40
2022-10-11T06:19:33.651Z,23.60
2022-10-11T06:20:33.587Z,22.50
2022-10-11T06:21:33.603Z,21.60
2022-10-11T06:22:33.578Z,22.10
2022-10-11T06:23:33.551Z,20.80
2022-10-11T06:24:33.579Z,21.80
2022-10-11T06:25:33.583Z,23.40
2022-10-11T06:26:33.641Z,20.10
2022-10-11T06:27:33.535Z,20.40
2022-10-11T06:28:33.625Z,19.90
2022-10-11T06:29:33.515Z,17.30
2022-10-11T06:30:33.507Z,22.10
2022-10-11T06:31:33.580Z,15.00
2022-10-11T06:32:33.530Z,19.80
2022-10-11T06:33:33.493Z,18.50
2022-10-11T06:34:33.486Z,18.90
2022-10-11T06:35:33.461Z,18.80
2022-10-11T06:36:33.468Z,21.30
2022-10-11T06:37:33.452Z,19.90
2022-10-11T06:38:33.496Z,17.70
2022-10-11T06:39:33.438Z,17.70
2022-10-11T06:40:33.557Z,20.00
2022-10-11T06:41:33.429Z,20.00
2022-10-11T06:42:33.555Z,20.40
2022-10-11T06:43:33.419Z,18.10
2022-10-11T06:44:33.426Z,16.50
2022-10-11T06:45:33.394Z,16.70
2022-10-11T06:46:33.410Z,15.30
2022-10-11T06:47:33.384Z,15.90
2022-10-11T06:48:33.379Z,19.30
2022-10-11T06:49:33.362Z,19.50
2022-10-11T06:50:58.086Z,19.30
2022-10-11T06:51:34.349Z,20.10
2022-10-11T06:52:33.343Z,34.10
2022-10-11T06:53:33.330Z,23.60
2022-10-11T06:54:33.332Z,24.00
2022-10-11T06:55:33.309Z,25.80
2022-10-11T06:56:33.323Z,28.90
2022-10-11T06:57:33.294Z,66.10
2022-10-11T06:58:33.316Z,50.30
2022-10-11T06:59:33.291Z,74.70
2022-10-11T07:00:33.274Z,61.80
2022-10-11T07:01:33.345Z,66.40
2022-10-11T07:02:33.277Z,41.80
2022-10-11T07:03:33.261Z,45.80
2022-10-11T07:04:33.234Z,51.10
2022-10-11T07:05:33.231Z,73.80
2022-10-11T07:06:33.225Z,63.20
2022-10-11T07:07:33.240Z,62.80
2022-10-11T07:08:33.240Z,53.50
2022-10-11T07:09:33.210Z,51.40
2022-10-11T07:10:33.203Z,86.40
2022-10-11T07:11:33.181Z,136.10
2022-10-11T07:12:33.179Z,99.00
2022-10-11T07:13:33.181Z,225.00
2022-10-11T07:14:33.191Z,167.00
2022-10-11T07:15:33.164Z,89.90
2022-10-11T07:16:33.145Z,94.20
2022-10-11T07:17:33.136Z,578.70
2022-10-11T07:18:33.123Z,309.10
2022-10-11T07:19:33.154Z,202.00
2022-10-11T07:20:33.255Z,404.10
2022-10-11T07:21:35.570Z,163.30
2022-10-11T07:22:40.716Z,81.60
2022-10-11T07:23:33.087Z,263.00
2022-10-11T07:24:33.078Z,303.80
2022-10-11T07:25:33.095Z,117.40
2022-10-11T07:26:38.277Z,89.80
2022-10-11T07:27:34.056Z,214.20
2022-10-11T07:28:33.113Z,238.90
2022-10-11T07:29:33.036Z,378.30
2022-10-11T07:30:33.157Z,223.40
2022-10-11T07:31:33.044Z,463.60
2022-10-11T07:32:33.023Z,53.30
2022-10-11T07:33:33.073Z,174.40
2022-10-11T07:34:32.983Z,280.20
2022-10-11T07:35:32.985Z,351.80
2022-10-11T07:36:33.054Z,290.30
2022-10-11T07:37:32.987Z,377.50
2022-10-11T07:38:32.962Z,382.50
2022-10-11T07:39:32.960Z,477.50
2022-10-11T07:40:32.942Z,554.00
2022-10-11T07:41:32.934Z,327.80
2022-10-11T07:42:32.941Z,525.20
2022-10-11T07:43:32.937Z,275.20
2022-10-11T07:44:32.901Z,46.70
2022-10-11T07:45:32.890Z,64.60
2022-10-11T07:46:32.905Z,71.20
2022-10-11T07:47:32.908Z,73.80
2022-10-11T07:48:32.894Z,193.30
2022-10-11T07:49:32.858Z,397.10
2022-10-11T07:50:32.865Z,301.00
2022-10-11T07:51:32.948Z,103.70
2022-10-11T07:52:32.861Z,175.00
2022-10-11T07:53:32.894Z,25.00
2022-10-11T07:54:32.885Z,18.10
2022-10-11T07:55:32.821Z,16.30
2022-10-11T07:56:32.814Z,12.20
2022-10-11T07:57:32.880Z,14.70
2022-10-11T07:58:32.797Z,19.40
2022-10-11T07:59:32.785Z,23.70
2022-10-11T08:00:32.789Z,17.50
2022-10-11T08:01:32.841Z,19.00
2022-10-11T08:02:32.767Z,25.80
2022-10-11T08:03:32.799Z,34.60
2022-10-11T08:04:32.739Z,18.90
2022-10-11T08:05:32.746Z,18.20
2022-10-11T08:06:33.033Z,14.20
2022-10-11T08:07:32.733Z,10.90
2022-10-11T08:08:32.728Z,12.70
2022-10-11T08:09:32.738Z,20.80
2022-10-11T08:10:32.696Z,14.70
2022-10-11T08:11:32.809Z,11.20
2022-10-11T08:12:32.672Z,10.90
2022-10-11T08:13:32.675Z,10.30
2022-10-11T08:14:32.701Z,8.60
2022-10-11T08:15:32.751Z,9.00
2022-10-11T08:16:32.664Z,10.90
2022-10-11T08:17:32.666Z,10.50
2022-10-11T08:18:32.633Z,8.00
2022-10-11T08:19:32.657Z,9.60
2022-10-11T08:20:32.645Z,9.20
2022-10-11T08:21:32.610Z,10.00
2022-10-11T08:22:32.604Z,9.70
2022-10-11T08:23:32.592Z,7.70
2022-10-11T08:24:37.344Z,9.10
2022-10-11T08:25:33.579Z,8.60
2022-10-11T08:26:32.584Z,10.30
2022-10-11T08:27:32.564Z,11.00
2022-10-11T08:28:32.631Z,10.30
2022-10-11T08:29:32.550Z,11.20
2022-10-11T08:30:32.583Z,11.40
2022-10-11T08:31:32.527Z,9.70
2022-10-11T08:32:32.529Z,9.30
2022-10-11T08:33:32.514Z,11.80
2022-10-11T08:34:32.525Z,10.30
2022-10-11T08:35:32.523Z,12.10
2022-10-11T08:36:32.491Z,11.20
2022-10-11T08:37:32.499Z,13.80
2022-10-11T08:38:32.463Z,13.00
2022-10-11T08:39:32.475Z,10.60
2022-10-11T08:40:35.311Z,12.60
2022-10-11T08:41:32.467Z,12.20
2022-10-11T08:42:32.466Z,13.20
2022-10-11T08:43:32.465Z,11.80
2022-10-11T08:44:51.723Z,15.70
2022-10-11T08:45:33.413Z,16.10
2022-10-11T08:46:32.398Z,12.40
2022-10-11T08:47:32.416Z,11.30
2022-10-11T08:48:32.380Z,13.90
2022-10-11T08:49:32.411Z,14.40
2022-10-11T08:50:32.369Z,13.40
2022-10-11T08:51:32.403Z,13.20
2022-10-11T08:52:32.366Z,14.30
2022-10-11T08:53:32.380Z,13.70
2022-10-11T08:54:32.338Z,15.00
2022-10-11T08:55:32.336Z,14.00
2022-10-11T08:56:32.331Z,14.60
2022-10-11T08:57:32.382Z,15.10
2022-10-11T08:58:32.326Z,13.00
2022-10-11T08:59:32.370Z,16.10
2022-10-11T09:00:32.288Z,16.40
2022-10-11T09:01:32.331Z,16.50
2022-10-11T09:02:55.815Z,13.40
2022-10-11T09:03:33.279Z,18.30
2022-10-11T09:04:32.263Z,15.10
2022-10-11T09:05:32.337Z,15.40
2022-10-11T09:06:32.252Z,14.60
2022-10-11T09:07:32.264Z,13.90
2022-10-11T09:08:32.248Z,15.10
2022-10-11T09:09:32.225Z,15.90
2022-10-11T09:10:32.215Z,14.50
2022-10-11T09:11:32.266Z,14.80
2022-10-11T09:12:34.321Z,16.30
2022-10-11T09:13:32.197Z,14.20
2022-10-11T09:14:32.195Z,15.90
2022-10-11T09:15:32.218Z,15.20
2022-10-11T09:16:32.204Z,14.00
2022-10-11T09:17:32.188Z,15.30
2022-10-11T09:18:32.207Z,14.30
2022-10-11T09:19:32.162Z,13.40
2022-10-11T09:20:32.183Z,14.80
2022-10-11T09:21:32.153Z,15.50
2022-10-11T09:22:32.156Z,15.80
2022-10-11T09:23:32.120Z,15.00
2022-10-11T09:24:33.034Z,13.00
2022-10-11T09:25:32.109Z,13.30
2022-10-11T09:26:32.128Z,13.10
2022-10-11T09:27:50.286Z,14.00
2022-10-11T09:28:33.146Z,13.10
2022-10-11T09:29:32.086Z,13.90
2022-10-11T09:30:32.117Z,14.70
2022-10-11T09:31:32.070Z,12.70
2022-10-11T09:32:32.078Z,13.00
2022-10-11T09:33:32.073Z,14.60
2022-10-11T09:34:32.055Z,12.80
2022-10-11T09:35:32.054Z,13.90
2022-10-11T09:36:32.036Z,12.90
2022-10-11T09:37:32.013Z,12.90
2022-10-11T09:38:32.027Z,12.10
2022-10-11T09:39:31.995Z,14.60
2022-10-11T09:40:31.988Z,11.80
2022-10-11T09:41:32.055Z,12.00
2022-10-11T09:42:31.976Z,12.60
2022-10-11T09:43:31.983Z,12.80
2022-10-11T09:44:31.988Z,14.10
2022-10-11T09:45:31.963Z,13.40
2022-10-11T09:46:31.961Z,13.00
2022-10-11T09:47:31.947Z,12.90
2022-10-11T09:48:31.940Z,13.60
2022-10-11T09:49:31.919Z,13.70
2022-10-11T09:50:31.942Z,11.90
2022-10-11T09:51:31.915Z,12.90
2022-10-11T09:52:31.900Z,12.70
2022-10-11T09:53:31.916Z,12.80
2022-10-11T09:54:31.888Z,14.40
2022-10-11T09:55:31.875Z,12.20
2022-10-11T09:56:31.869Z,12.80
2022-10-11T09:57:31.860Z,12.70
2022-10-11T09:58:31.867Z,12.00
2022-10-11T09:59:31.861Z,12.60
2022-10-11T10:00:31.835Z,12.80
2022-10-11T10:01:31.903Z,10.90
2022-10-11T10:02:31.836Z,14.20
2022-10-11T10:03:31.840Z,12.40
2022-10-11T10:04:31.842Z,11.60
2022-10-11T10:05:31.802Z,12.50
2022-10-11T10:06:31.817Z,11.50
2022-10-11T10:07:31.798Z,13.90
2022-10-11T10:08:31.793Z,10.60
2022-10-11T10:09:31.900Z,13.50
2022-10-11T10:10:31.787Z,14.20
2022-10-11T10:11:31.756Z,10.80
2022-10-11T10:12:31.778Z,12.10
2022-10-11T10:13:31.791Z,13.10
2022-10-11T10:14:31.774Z,11.60
2022-10-11T10:15:31.746Z,13.50
2022-10-11T10:16:31.789Z,12.30
2022-10-11T10:17:31.714Z,13.70
2022-10-11T10:18:31.712Z,13.50
2022-10-11T10:19:31.702Z,11.10
2022-10-11T10:20:31.694Z,12.70
2022-10-11T10:21:31.673Z,9.40
2022-10-11T10:22:31.687Z,11.80
2022-10-11T10:23:31.694Z,10.50
2022-10-11T10:24:31.661Z,10.50
2022-10-11T10:25:31.658Z,11.30
2022-10-11T10:26:31.658Z,12.00
2022-10-11T10:27:31.649Z,10.20
2022-10-11T10:28:31.750Z,13.60
2022-10-11T10:29:31.626Z,11.20
2022-10-11T10:30:35.359Z,11.10
2022-10-11T10:31:32.826Z,8.60
2022-10-11T10:32:32.599Z,10.50
2022-10-11T10:33:31.590Z,10.90
2022-10-11T10:34:31.606Z,9.80
2022-10-11T10:35:31.598Z,11.50
2022-10-11T10:36:31.612Z,11.10
2022-10-11T10:37:31.567Z,12.20
2022-10-11T10:38:31.556Z,10.20
2022-10-11T10:39:31.573Z,9.70
2022-10-11T10:40:31.637Z,8.70
2022-10-11T10:41:31.555Z,9.30
2022-10-11T10:42:31.552Z,11.50
2022-10-11T10:43:31.533Z,9.10
2022-10-11T10:44:31.559Z,10.30
2022-10-11T10:45:31.504Z,9.20
2022-10-11T10:46:31.526Z,8.80
2022-10-11T10:47:31.489Z,11.80
2022-10-11T10:48:46.915Z,9.90
2022-10-11T10:49:53.183Z,10.90
2022-10-11T10:50:32.706Z,9.80
2022-10-11T10:51:31.463Z,9.60
2022-10-11T10:52:31.467Z,8.90
2022-10-11T10:53:31.468Z,10.60
2022-10-11T10:54:31.456Z,9.20
2022-10-11T10:55:31.439Z,9.40
2022-10-11T10:56:31.427Z,9.30
2022-10-11T10:57:31.429Z,10.50
2022-10-11T10:58:31.452Z,10.00
2022-10-11T10:59:31.449Z,9.70
2022-10-11T11:00:31.488Z,9.30
2022-10-11T11:01:31.448Z,9.50
2022-10-11T11:02:46.908Z,9.90
2022-10-11T11:03:32.372Z,8.70
2022-10-11T11:04:31.370Z,9.10
2022-10-11T11:05:31.402Z,8.90
2022-10-11T11:06:34.194Z,10.80
2022-10-11T11:07:32.335Z,9.70
2022-10-11T11:08:31.325Z,9.70
2022-10-11T11:09:31.347Z,8.20
2022-10-11T11:10:31.326Z,9.30
2022-10-11T11:11:31.326Z,11.40
2022-10-11T11:12:31.298Z,8.90
2022-10-11T11:13:31.293Z,9.20
2022-10-11T11:14:31.287Z,9.40
2022-10-11T11:15:33.153Z,8.40
2022-10-11T11:16:32.303Z,7.30
2022-10-11T11:17:31.261Z,8.30
2022-10-11T11:18:31.263Z,7.90
2022-10-11T11:19:31.313Z,8.20
2022-10-11T11:20:31.258Z,7.40
2022-10-11T11:21:31.258Z,8.20
2022-10-11T11:22:32.840Z,9.00
2022-10-11T11:23:31.212Z,8.60
2022-10-11T11:24:31.440Z,7.60
2022-10-11T11:25:31.200Z,7.80
2022-10-11T11:26:31.196Z,8.50
2022-10-11T11:27:31.270Z,9.10
2022-10-11T11:28:31.338Z,8.00
2022-10-11T11:29:31.180Z,8.40
2022-10-11T11:30:31.180Z,7.90
2022-10-11T11:31:31.168Z,7.30
2022-10-11T11:32:31.157Z,8.60
2022-10-11T11:33:31.174Z,9.00
2022-10-11T11:34:31.140Z,8.30
2022-10-11T11:35:31.145Z,8.90
2022-10-11T11:36:31.117Z,8.30
2022-10-11T11:37:31.113Z,8.30
2022-10-11T11:38:31.111Z,8.70
2022-10-11T11:39:31.137Z,7.80
2022-10-11T11:40:31.102Z,8.90
2022-10-11T11:41:31.098Z,7.20
2022-10-11T11:42:31.107Z,9.50
2022-10-11T11:43:31.068Z,8.10
2022-10-11T11:44:31.058Z,9.30
2022-10-11T11:45:31.072Z,8.00
2022-10-11T11:46:31.053Z,9.30
2022-10-11T11:47:31.068Z,9.50
2022-10-11T11:48:31.036Z,9.00
2022-10-11T11:49:31.143Z,9.10
2022-10-11T11:50:34.280Z,8.90
2022-10-11T11:51:31.509Z,8.40
2022-10-11T11:52:31.004Z,9.10
2022-10-11T11:53:30.988Z,10.70
2022-10-11T11:54:31.047Z,9.00
2022-10-11T11:55:30.972Z,9.70
2022-10-11T11:56:31.004Z,9.10
2022-10-11T11:57:31.006Z,7.50
2022-10-11T11:58:30.958Z,9.30
2022-10-11T11:59:30.959Z,9.40
2022-10-11T12:00:31.053Z,10.50
2022-10-11T12:01:31.823Z,10.50
2022-10-11T12:02:30.973Z,9.60
2022-10-11T12:03:30.939Z,9.70
2022-10-11T12:04:31.052Z,9.10
2022-10-11T12:05:30.997Z,10.70
2022-10-11T12:06:30.905Z,8.00
2022-10-11T12:07:30.927Z,8.80
2022-10-11T12:08:30.887Z,8.20
2022-10-11T12:09:30.876Z,8.20
2022-10-11T12:10:30.869Z,10.00
2022-10-11T12:11:35.366Z,7.80
2022-10-11T12:12:30.855Z,8.40
2022-10-11T12:13:32.611Z,9.90
2022-10-11T12:14:30.853Z,8.10
2022-10-11T12:15:30.849Z,9.30
2022-10-11T12:16:30.956Z,8.50
2022-10-11T12:17:30.819Z,10.00
2022-10-11T12:18:30.807Z,10.00
2022-10-11T12:19:30.803Z,10.40
2022-10-11T12:20:30.795Z,8.80
2022-10-11T12:21:30.867Z,10.10
2022-10-11T12:22:30.798Z,9.10
2022-10-11T12:23:30.777Z,8.60
2022-10-11T12:24:30.766Z,7.70
2022-10-11T12:25:30.764Z,8.50
2022-10-11T12:26:30.753Z,9.50
2022-10-11T12:27:30.746Z,8.90
2022-10-11T12:28:30.827Z,9.00
2022-10-11T12:29:30.730Z,9.20
2022-10-11T12:30:30.720Z,9.20
2022-10-11T12:31:30.728Z,10.40
2022-10-11T12:32:30.754Z,10.40
2022-10-11T12:33:30.707Z,8.40
2022-10-11T12:34:30.753Z,9.20
2022-10-11T12:35:30.676Z,10.20
2022-10-11T12:36:30.679Z,7.80
2022-10-11T12:37:30.660Z,9.70
2022-10-11T12:38:31.158Z,9.10
2022-10-11T12:39:30.645Z,8.90
2022-10-11T12:40:30.639Z,9.10
2022-10-11T12:41:30.633Z,7.70
2022-10-11T12:42:30.626Z,9.30
2022-10-11T12:43:30.634Z,9.60
2022-10-11T12:44:30.650Z,10.40
2022-10-11T12:45:30.605Z,9.00
2022-10-11T12:46:30.596Z,10.20
2022-10-11T12:47:30.587Z,9.90
2022-10-11T12:48:35.904Z,10.00
2022-10-11T12:49:31.586Z,7.90
2022-10-11T12:50:30.561Z,7.40
2022-10-11T12:51:30.627Z,8.80
2022-10-11T12:52:30.594Z,8.70
2022-10-11T12:53:30.527Z,7.80
2022-10-11T12:54:35.997Z,8.20
2022-10-11T12:55:31.529Z,7.20
2022-10-11T12:56:30.515Z,8.20
2022-10-11T12:57:30.528Z,8.00